sensor_id;sensor_type;location;lat;lon;timestamp;P1;durP1;ratioP1;P2;durP2;ratioP2
67757;SDS011;54562;47.620;18.786;2023-04-25T00:03:04;5.00;;;2.40;;
67757;SDS011;54562;47.620;18.786;2023-04-25T00:06:16;5.10;;;2.40;;
67757;SDS011;54562;47.620;18.786;2023-04-25T00:09:23;5.90;;;2.60;;
67757;SDS011;54562;47.620;18.786;2023-04-25T00:12:30;5.50;;;2.60;;
67757;SDS011;54562;47.620;18.786;2023-04-25T00:15:38;5.40;;;2.80;;
67757;SDS011;54562;47.620;18.786;2023-04-25T00:18:46;5.00;;;2.60;;
67757;SDS011;54562;47.620;18.786;2023-04-25T00:21:56;5.60;;;3.20;;
67757;SDS011;54562;47.620;18.786;2023-04-25T00:25:03;5.30;;;2.60;;
67757;SDS011;54562;47.620;18.786;2023-04-25T00:28:10;6.10;;;2.80;;
67757;SDS011;54562;47.620;18.786;2023-04-25T00:31:17;5.60;;;2.90;;
67757;SDS011;54562;47.620;18.786;2023-04-25T00:34:24;6.10;;;2.90;;
67757;SDS011;54562;47.620;18.786;2023-04-25T00:37:31;6.00;;;2.90;;
67757;SDS011;54562;47.620;18.786;2023-04-25T00:40:37;6.20;;;3.10;;
67757;SDS011;54562;47.620;18.786;2023-04-25T00:43:44;7.00;;;3.30;;
67757;SDS011;54562;47.620;18.786;2023-04-25T00:46:52;6.30;;;3.60;;
67757;SDS011;54562;47.620;18.786;2023-04-25T00:49:58;6.90;;;3.70;;
67757;SDS011;54562;47.620;18.786;2023-04-25T00:53:04;7.00;;;3.50;;
67757;SDS011;54562;47.620;18.786;2023-04-25T00:56:11;6.80;;;3.30;;
67757;SDS011;54562;47.620;18.786;2023-04-25T00:59:18;6.30;;;3.40;;
67757;SDS011;54562;47.620;18.786;2023-04-25T01:02:25;6.20;;;3.30;;
67757;SDS011;54562;47.620;18.786;2023-04-25T01:05:32;8.00;;;3.70;;
67757;SDS011;54562;47.620;18.786;2023-04-25T01:08:39;7.20;;;3.40;;
67757;SDS011;54562;47.620;18.786;2023-04-25T01:11:45;6.20;;;3.50;;
67757;SDS011;54562;47.620;18.786;2023-04-25T01:14:51;7.60;;;3.40;;
67757;SDS011;54562;47.620;18.786;2023-04-25T01:17:58;5.60;;;3.20;;
67757;SDS011;54562;47.620;18.786;2023-04-25T01:21:09;6.80;;;3.90;;
67757;SDS011;54562;47.620;18.786;2023-04-25T01:24:16;6.30;;;3.40;;
67757;SDS011;54562;47.620;18.786;2023-04-25T01:27:23;6.40;;;3.40;;
67757;SDS011;54562;47.620;18.786;2023-04-25T01:30:30;7.40;;;3.40;;
67757;SDS011;54562;47.620;18.786;2023-04-25T01:33:36;5.90;;;3.10;;
67757;SDS011;54562;47.620;18.786;2023-04-25T01:36:43;6.30;;;3.60;;
67757;SDS011;54562;47.620;18.786;2023-04-25T01:39:50;6.60;;;3.60;;
67757;SDS011;54562;47.620;18.786;2023-04-25T01:42:56;7.30;;;3.40;;
67757;SDS011;54562;47.620;18.786;2023-04-25T01:46:04;7.00;;;3.90;;
67757;SDS011;54562;47.620;18.786;2023-04-25T01:49:11;5.00;;;2.70;;
67757;SDS011;54562;47.620;18.786;2023-04-25T01:52:17;5.90;;;3.50;;
67757;SDS011;54562;47.620;18.786;2023-04-25T01:55:23;6.20;;;3.60;;
67757;SDS011;54562;47.620;18.786;2023-04-25T01:58:30;6.90;;;3.40;;
67757;SDS011;54562;47.620;18.786;2023-04-25T02:01:36;7.00;;;3.80;;
67757;SDS011;54562;47.620;18.786;2023-04-25T02:04:44;6.60;;;3.40;;
67757;SDS011;54562;47.620;18.786;2023-04-25T02:07:51;6.80;;;3.40;;
67757;SDS011;54562;47.620;18.786;2023-04-25T02:10:57;7.30;;;3.70;;
67757;SDS011;54562;47.620;18.786;2023-04-25T02:14:04;6.80;;;3.10;;
67757;SDS011;54562;47.620;18.786;2023-04-25T02:17:10;7.20;;;3.60;;
67757;SDS011;54562;47.620;18.786;2023-04-25T02:20:18;6.90;;;3.60;;
67757;SDS011;54562;47.620;18.786;2023-04-25T02:23:26;7.40;;;3.40;;
67757;SDS011;54562;47.620;18.786;2023-04-25T02:26:32;6.50;;;3.30;;
67757;SDS011;54562;47.620;18.786;2023-04-25T02:29:39;6.20;;;3.60;;
67757;SDS011;54562;47.620;18.786;2023-04-25T02:32:45;6.10;;;3.40;;
67757;SDS011;54562;47.620;18.786;2023-04-25T02:35:52;6.40;;;3.60;;
67757;SDS011;54562;47.620;18.786;2023-04-25T02:38:58;7.80;;;3.60;;
67757;SDS011;54562;47.620;18.786;2023-04-25T02:42:05;7.20;;;3.70;;
67757;SDS011;54562;47.620;18.786;2023-04-25T02:45:12;6.50;;;3.80;;
67757;SDS011;54562;47.620;18.786;2023-04-25T02:48:18;6.60;;;3.40;;
67757;SDS011;54562;47.620;18.786;2023-04-25T02:51:25;6.20;;;3.30;;
67757;SDS011;54562;47.620;18.786;2023-04-25T02:54:32;7.10;;;3.70;;
67757;SDS011;54562;47.620;18.786;2023-04-25T02:57:38;6.90;;;3.60;;
67757;SDS011;54562;47.620;18.786;2023-04-25T03:00:44;5.70;;;3.10;;
67757;SDS011;54562;47.620;18.786;2023-04-25T03:03:51;8.40;;;3.90;;
67757;SDS011;54562;47.620;18.786;2023-04-25T03:06:57;8.40;;;3.50;;
67757;SDS011;54562;47.620;18.786;2023-04-25T03:10:05;5.90;;;2.90;;
67757;SDS011;54562;47.620;18.786;2023-04-25T03:13:26;6.40;;;3.60;;
67757;SDS011;54562;47.620;18.786;2023-04-25T03:16:34;6.80;;;3.10;;
67757;SDS011;54562;47.620;18.786;2023-04-25T03:19:40;8.50;;;4.10;;
67757;SDS011;54562;47.620;18.786;2023-04-25T03:22:47;6.70;;;3.80;;
67757;SDS011;54562;47.620;18.786;2023-04-25T03:25:53;7.00;;;4.00;;
67757;SDS011;54562;47.620;18.786;2023-04-25T03:28:59;6.50;;;3.50;;
67757;SDS011;54562;47.620;18.786;2023-04-25T03:32:06;6.40;;;3.70;;
67757;SDS011;54562;47.620;18.786;2023-04-25T03:35:12;7.70;;;4.00;;
67757;SDS011;54562;47.620;18.786;2023-04-25T03:38:19;6.60;;;3.60;;
67757;SDS011;54562;47.620;18.786;2023-04-25T03:41:25;9.10;;;3.80;;
67757;SDS011;54562;47.620;18.786;2023-04-25T03:44:32;6.00;;;3.20;;
67757;SDS011;54562;47.620;18.786;2023-04-25T03:47:38;6.60;;;3.50;;
67757;SDS011;54562;47.620;18.786;2023-04-25T03:50:45;7.60;;;4.00;;
67757;SDS011;54562;47.620;18.786;2023-04-25T03:53:51;7.40;;;3.90;;
67757;SDS011;54562;47.620;18.786;2023-04-25T03:56:57;6.90;;;3.50;;
67757;SDS011;54562;47.620;18.786;2023-04-25T04:00:05;7.30;;;3.90;;
67757;SDS011;54562;47.620;18.786;2023-04-25T04:03:12;6.20;;;3.90;;
67757;SDS011;54562;47.620;18.786;2023-04-25T04:06:19;6.40;;;3.30;;
67757;SDS011;54562;47.620;18.786;2023-04-25T04:09:25;6.10;;;3.70;;
67757;SDS011;54562;47.620;18.786;2023-04-25T04:12:32;5.10;;;2.30;;
67757;SDS011;54562;47.620;18.786;2023-04-25T04:15:38;8.70;;;4.30;;
67757;SDS011;54562;47.620;18.786;2023-04-25T04:18:44;6.40;;;3.60;;
67757;SDS011;54562;47.620;18.786;2023-04-25T04:21:51;7.20;;;4.00;;
67757;SDS011;54562;47.620;18.786;2023-04-25T04:24:57;7.20;;;3.80;;
67757;SDS011;54562;47.620;18.786;2023-04-25T04:28:03;7.10;;;4.00;;
67757;SDS011;54562;47.620;18.786;2023-04-25T04:31:13;7.90;;;4.30;;
67757;SDS011;54562;47.620;18.786;2023-04-25T04:34:21;7.70;;;3.70;;
67757;SDS011;54562;47.620;18.786;2023-04-25T04:37:29;7.10;;;4.00;;
67757;SDS011;54562;47.620;18.786;2023-04-25T04:40:35;6.50;;;3.80;;
67757;SDS011;54562;47.620;18.786;2023-04-25T04:43:42;6.60;;;4.10;;
67757;SDS011;54562;47.620;18.786;2023-04-25T04:46:49;6.90;;;3.90;;
67757;SDS011;54562;47.620;18.786;2023-04-25T04:49:55;7.10;;;4.10;;
67757;SDS011;54562;47.620;18.786;2023-04-25T04:53:02;7.50;;;4.00;;
67757;SDS011;54562;47.620;18.786;2023-04-25T04:56:11;8.00;;;4.00;;
67757;SDS011;54562;47.620;18.786;2023-04-25T04:59:18;8.00;;;4.60;;
67757;SDS011;54562;47.620;18.786;2023-04-25T05:02:26;8.30;;;4.20;;
67757;SDS011;54562;47.620;18.786;2023-04-25T05:05:33;7.60;;;4.10;;
67757;SDS011;54562;47.620;18.786;2023-04-25T05:08:39;7.90;;;4.10;;
67757;SDS011;54562;47.620;18.786;2023-04-25T05:11:46;6.80;;;4.10;;
67757;SDS011;54562;47.620;18.786;2023-04-25T05:14:52;8.30;;;4.30;;
67757;SDS011;54562;47.620;18.786;2023-04-25T05:17:58;7.90;;;4.40;;
67757;SDS011;54562;47.620;18.786;2023-04-25T05:21:07;7.90;;;4.20;;
67757;SDS011;54562;47.620;18.786;2023-04-25T05:24:14;8.50;;;4.60;;
67757;SDS011;54562;47.620;18.786;2023-04-25T05:27:21;8.70;;;4.70;;
67757;SDS011;54562;47.620;18.786;2023-04-25T05:30:27;8.70;;;4.60;;
67757;SDS011;54562;47.620;18.786;2023-04-25T05:33:34;7.80;;;4.60;;
67757;SDS011;54562;47.620;18.786;2023-04-25T05:36:40;7.00;;;4.20;;
67757;SDS011;54562;47.620;18.786;2023-04-25T05:39:47;8.30;;;4.40;;
67757;SDS011;54562;47.620;18.786;2023-04-25T05:42:54;8.10;;;4.30;;
67757;SDS011;54562;47.620;18.786;2023-04-25T05:46:01;7.10;;;4.30;;
67757;SDS011;54562;47.620;18.786;2023-04-25T05:49:07;7.60;;;4.50;;
67757;SDS011;54562;47.620;18.786;2023-04-25T05:52:14;8.40;;;4.60;;
67757;SDS011;54562;47.620;18.786;2023-04-25T05:55:20;6.50;;;3.90;;
67757;SDS011;54562;47.620;18.786;2023-04-25T05:58:26;8.80;;;4.60;;
67757;SDS011;54562;47.620;18.786;2023-04-25T06:01:33;7.80;;;4.30;;
67757;SDS011;54562;47.620;18.786;2023-04-25T06:04:40;7.80;;;4.30;;
67757;SDS011;54562;47.620;18.786;2023-04-25T06:07:46;16.10;;;5.10;;
67757;SDS011;54562;47.620;18.786;2023-04-25T06:10:53;6.70;;;4.20;;
67757;SDS011;54562;47.620;18.786;2023-04-25T06:14:00;8.70;;;4.40;;
67757;SDS011;54562;47.620;18.786;2023-04-25T06:17:08;15.30;;;5.00;;
67757;SDS011;54562;47.620;18.786;2023-04-25T06:20:15;7.50;;;4.40;;
67757;SDS011;54562;47.620;18.786;2023-04-25T06:23:21;15.70;;;5.60;;
67757;SDS011;54562;47.620;18.786;2023-04-25T06:26:27;15.70;;;4.80;;
67757;SDS011;54562;47.620;18.786;2023-04-25T06:32:40;19.40;;;6.20;;
67757;SDS011;54562;47.620;18.786;2023-04-25T06:35:47;9.20;;;4.40;;
67757;SDS011;54562;47.620;18.786;2023-04-25T06:38:53;20.10;;;5.70;;
67757;SDS011;54562;47.620;18.786;2023-04-25T06:42:00;12.10;;;5.10;;
67757;SDS011;54562;47.620;18.786;2023-04-25T06:45:08;8.80;;;4.80;;
67757;SDS011;54562;47.620;18.786;2023-04-25T06:48:14;10.20;;;5.10;;
67757;SDS011;54562;47.620;18.786;2023-04-25T06:51:22;12.50;;;5.70;;
67757;SDS011;54562;47.620;18.786;2023-04-25T06:54:30;7.70;;;4.40;;
67757;SDS011;54562;47.620;18.786;2023-04-25T06:57:37;7.60;;;4.60;;
67757;SDS011;54562;47.620;18.786;2023-04-25T07:00:44;7.40;;;4.90;;
67757;SDS011;54562;47.620;18.786;2023-04-25T07:07:27;7.60;;;4.40;;
67757;SDS011;54562;47.620;18.786;2023-04-25T07:10:33;8.50;;;4.70;;
67757;SDS011;54562;47.620;18.786;2023-04-25T07:16:53;8.10;;;4.70;;
67757;SDS011;54562;47.620;18.786;2023-04-25T07:20:00;9.40;;;4.90;;
67757;SDS011;54562;47.620;18.786;2023-04-25T07:23:08;7.50;;;3.90;;
67757;SDS011;54562;47.620;18.786;2023-04-25T07:26:15;8.30;;;4.70;;
67757;SDS011;54562;47.620;18.786;2023-04-25T07:29:22;7.90;;;4.20;;
67757;SDS011;54562;47.620;18.786;2023-04-25T07:32:28;9.10;;;4.90;;
67757;SDS011;54562;47.620;18.786;2023-04-25T07:35:34;8.90;;;5.40;;
67757;SDS011;54562;47.620;18.786;2023-04-25T07:38:41;8.20;;;5.40;;
67757;SDS011;54562;47.620;18.786;2023-04-25T07:41:49;7.80;;;5.10;;
67757;SDS011;54562;47.620;18.786;2023-04-25T07:45:00;8.00;;;5.20;;
67757;SDS011;54562;47.620;18.786;2023-04-25T07:48:07;8.60;;;5.00;;
67757;SDS011;54562;47.620;18.786;2023-04-25T07:51:13;8.30;;;4.90;;
67757;SDS011;54562;47.620;18.786;2023-04-25T07:54:20;7.10;;;4.00;;
67757;SDS011;54562;47.620;18.786;2023-04-25T07:57:26;7.50;;;4.60;;
67757;SDS011;54562;47.620;18.786;2023-04-25T08:00:32;7.40;;;4.50;;
67757;SDS011;54562;47.620;18.786;2023-04-25T08:03:38;8.60;;;4.50;;
67757;SDS011;54562;47.620;18.786;2023-04-25T08:06:45;11.30;;;5.40;;
67757;SDS011;54562;47.620;18.786;2023-04-25T08:09:52;8.00;;;4.80;;
67757;SDS011;54562;47.620;18.786;2023-04-25T08:12:59;8.30;;;5.30;;
67757;SDS011;54562;47.620;18.786;2023-04-25T08:16:05;9.60;;;5.20;;
67757;SDS011;54562;47.620;18.786;2023-04-25T08:19:12;9.90;;;5.30;;
67757;SDS011;54562;47.620;18.786;2023-04-25T08:22:19;8.40;;;5.30;;
67757;SDS011;54562;47.620;18.786;2023-04-25T08:25:26;8.40;;;5.10;;
67757;SDS011;54562;47.620;18.786;2023-04-25T08:28:32;7.70;;;5.00;;
67757;SDS011;54562;47.620;18.786;2023-04-25T08:31:42;9.50;;;5.40;;
67757;SDS011;54562;47.620;18.786;2023-04-25T08:34:48;8.60;;;5.80;;
67757;SDS011;54562;47.620;18.786;2023-04-25T08:41:04;8.00;;;5.00;;
67757;SDS011;54562;47.620;18.786;2023-04-25T08:44:12;8.90;;;5.50;;
67757;SDS011;54562;47.620;18.786;2023-04-25T08:47:19;9.40;;;5.60;;
67757;SDS011;54562;47.620;18.786;2023-04-25T08:50:29;9.80;;;5.80;;
67757;SDS011;54562;47.620;18.786;2023-04-25T08:53:37;9.40;;;5.90;;
67757;SDS011;54562;47.620;18.786;2023-04-25T09:00:16;7.60;;;5.40;;
67757;SDS011;54562;47.620;18.786;2023-04-25T09:03:22;9.20;;;5.00;;
67757;SDS011;54562;47.620;18.786;2023-04-25T09:06:29;9.10;;;5.50;;
67757;SDS011;54562;47.620;18.786;2023-04-25T09:09:36;12.30;;;5.20;;
67757;SDS011;54562;47.620;18.786;2023-04-25T09:12:43;7.00;;;4.20;;
67757;SDS011;54562;47.620;18.786;2023-04-25T09:15:50;7.60;;;5.00;;
67757;SDS011;54562;47.620;18.786;2023-04-25T09:18:56;8.70;;;4.50;;
67757;SDS011;54562;47.620;18.786;2023-04-25T09:22:04;7.70;;;4.40;;
67757;SDS011;54562;47.620;18.786;2023-04-25T09:25:12;7.30;;;4.30;;
67757;SDS011;54562;47.620;18.786;2023-04-25T09:28:24;6.90;;;4.60;;
67757;SDS011;54562;47.620;18.786;2023-04-25T09:31:35;9.50;;;4.50;;
67757;SDS011;54562;47.620;18.786;2023-04-25T09:34:42;5.80;;;3.20;;
67757;SDS011;54562;47.620;18.786;2023-04-25T09:37:49;6.00;;;3.30;;
67757;SDS011;54562;47.620;18.786;2023-04-25T09:40:56;8.90;;;3.60;;
67757;SDS011;54562;47.620;18.786;2023-04-25T09:44:04;7.40;;;3.40;;
67757;SDS011;54562;47.620;18.786;2023-04-25T09:47:12;6.90;;;3.40;;
67757;SDS011;54562;47.620;18.786;2023-04-25T09:50:19;5.60;;;3.30;;
67757;SDS011;54562;47.620;18.786;2023-04-25T09:53:29;6.10;;;3.40;;
67757;SDS011;54562;47.620;18.786;2023-04-25T09:56:37;5.80;;;2.90;;
67757;SDS011;54562;47.620;18.786;2023-04-25T09:59:47;7.00;;;2.90;;
67757;SDS011;54562;47.620;18.786;2023-04-25T10:02:55;5.30;;;2.50;;
67757;SDS011;54562;47.620;18.786;2023-04-25T10:06:06;5.00;;;2.50;;
67757;SDS011;54562;47.620;18.786;2023-04-25T10:09:13;4.10;;;2.10;;
67757;SDS011;54562;47.620;18.786;2023-04-25T10:12:20;5.00;;;2.30;;
67757;SDS011;54562;47.620;18.786;2023-04-25T10:15:27;5.80;;;2.20;;
67757;SDS011;54562;47.620;18.786;2023-04-25T10:18:34;4.30;;;2.20;;
67757;SDS011;54562;47.620;18.786;2023-04-25T10:21:46;5.20;;;2.30;;
67757;SDS011;54562;47.620;18.786;2023-04-25T10:24:54;11.40;;;2.50;;
67757;SDS011;54562;47.620;18.786;2023-04-25T10:28:02;3.70;;;1.80;;
67757;SDS011;54562;47.620;18.786;2023-04-25T10:31:10;3.90;;;1.60;;
67757;SDS011;54562;47.620;18.786;2023-04-25T10:34:17;3.50;;;1.80;;
67757;SDS011;54562;47.620;18.786;2023-04-25T10:37:23;3.90;;;1.80;;
67757;SDS011;54562;47.620;18.786;2023-04-25T10:40:30;4.70;;;1.70;;
67757;SDS011;54562;47.620;18.786;2023-04-25T10:46:40;3.70;;;1.70;;
67757;SDS011;54562;47.620;18.786;2023-04-25T10:49:52;7.00;;;1.80;;
67757;SDS011;54562;47.620;18.786;2023-04-25T10:53:15;3.50;;;1.70;;
67757;SDS011;54562;47.620;18.786;2023-04-25T10:56:22;3.00;;;1.50;;
67757;SDS011;54562;47.620;18.786;2023-04-25T10:59:29;4.00;;;1.70;;
67757;SDS011;54562;47.620;18.786;2023-04-25T11:02:41;3.90;;;1.70;;
67757;SDS011;54562;47.620;18.786;2023-04-25T11:05:50;3.60;;;1.70;;
67757;SDS011;54562;47.620;18.786;2023-04-25T11:09:04;3.00;;;1.50;;
67757;SDS011;54562;47.620;18.786;2023-04-25T11:12:18;2.00;;;1.30;;
67757;SDS011;54562;47.620;18.786;2023-04-25T11:15:24;3.10;;;1.50;;
67757;SDS011;54562;47.620;18.786;2023-04-25T11:18:31;5.40;;;1.60;;
67757;SDS011;54562;47.620;18.786;2023-04-25T11:21:47;3.30;;;1.50;;
67757;SDS011;54562;47.620;18.786;2023-04-25T11:24:54;3.50;;;1.60;;
67757;SDS011;54562;47.620;18.786;2023-04-25T11:28:07;6.00;;;1.90;;
67757;SDS011;54562;47.620;18.786;2023-04-25T11:31:15;6.90;;;1.90;;
67757;SDS011;54562;47.620;18.786;2023-04-25T11:34:21;5.20;;;2.00;;
67757;SDS011;54562;47.620;18.786;2023-04-25T11:37:28;7.40;;;2.00;;
67757;SDS011;54562;47.620;18.786;2023-04-25T11:40:34;4.70;;;2.10;;
67757;SDS011;54562;47.620;18.786;2023-04-25T11:46:51;4.20;;;2.20;;
67757;SDS011;54562;47.620;18.786;2023-04-25T11:49:59;4.60;;;2.20;;
67757;SDS011;54562;47.620;18.786;2023-04-25T11:53:06;4.40;;;2.00;;
67757;SDS011;54562;47.620;18.786;2023-04-25T11:56:13;6.80;;;2.00;;
67757;SDS011;54562;47.620;18.786;2023-04-25T11:59:25;4.60;;;2.10;;
67757;SDS011;54562;47.620;18.786;2023-04-25T12:02:32;5.50;;;2.50;;
67757;SDS011;54562;47.620;18.786;2023-04-25T12:05:45;8.90;;;2.90;;
67757;SDS011;54562;47.620;18.786;2023-04-25T12:09:03;5.60;;;2.10;;
67757;SDS011;54562;47.620;18.786;2023-04-25T12:12:11;13.80;;;3.60;;
67757;SDS011;54562;47.620;18.786;2023-04-25T12:15:23;5.20;;;2.10;;
67757;SDS011;54562;47.620;18.786;2023-04-25T12:18:30;8.80;;;2.50;;
67757;SDS011;54562;47.620;18.786;2023-04-25T12:21:39;6.20;;;3.30;;
67757;SDS011;54562;47.620;18.786;2023-04-25T12:25:02;6.70;;;2.60;;
67757;SDS011;54562;47.620;18.786;2023-04-25T12:28:16;10.90;;;3.00;;
67757;SDS011;54562;47.620;18.786;2023-04-25T12:31:24;13.00;;;3.30;;
67757;SDS011;54562;47.620;18.786;2023-04-25T12:34:31;11.10;;;3.10;;
67757;SDS011;54562;47.620;18.786;2023-04-25T12:37:40;4.60;;;2.50;;
67757;SDS011;54562;47.620;18.786;2023-04-25T12:40:48;11.80;;;3.00;;
67757;SDS011;54562;47.620;18.786;2023-04-25T12:43:55;4.80;;;2.10;;
67757;SDS011;54562;47.620;18.786;2023-04-25T12:47:01;6.20;;;2.10;;
67757;SDS011;54562;47.620;18.786;2023-04-25T12:50:09;9.50;;;3.00;;
67757;SDS011;54562;47.620;18.786;2023-04-25T12:53:16;5.90;;;2.50;;
67757;SDS011;54562;47.620;18.786;2023-04-25T12:56:22;19.50;;;4.30;;
67757;SDS011;54562;47.620;18.786;2023-04-25T12:59:30;4.80;;;2.30;;
67757;SDS011;54562;47.620;18.786;2023-04-25T13:05:51;5.30;;;2.30;;
67757;SDS011;54562;47.620;18.786;2023-04-25T13:08:59;5.50;;;2.60;;
67757;SDS011;54562;47.620;18.786;2023-04-25T13:12:06;5.70;;;2.30;;
67757;SDS011;54562;47.620;18.786;2023-04-25T13:15:13;6.30;;;2.20;;
67757;SDS011;54562;47.620;18.786;2023-04-25T13:18:20;4.70;;;2.30;;
67757;SDS011;54562;47.620;18.786;2023-04-25T13:21:26;5.10;;;2.50;;
67757;SDS011;54562;47.620;18.786;2023-04-25T13:24:32;5.10;;;2.20;;
67757;SDS011;54562;47.620;18.786;2023-04-25T13:27:40;6.50;;;2.50;;
67757;SDS011;54562;47.620;18.786;2023-04-25T13:30:48;5.90;;;2.40;;
67757;SDS011;54562;47.620;18.786;2023-04-25T13:41:41;5.80;;;2.50;;
67757;SDS011;54562;47.620;18.786;2023-04-25T13:44:47;6.30;;;2.50;;
67757;SDS011;54562;47.620;18.786;2023-04-25T13:47:54;5.20;;;2.40;;
67757;SDS011;54562;47.620;18.786;2023-04-25T13:51:00;5.00;;;2.50;;
67757;SDS011;54562;47.620;18.786;2023-04-25T13:54:07;5.00;;;2.40;;
67757;SDS011;54562;47.620;18.786;2023-04-25T13:57:13;5.20;;;2.50;;
67757;SDS011;54562;47.620;18.786;2023-04-25T14:00:20;5.80;;;2.30;;
67757;SDS011;54562;47.620;18.786;2023-04-25T14:03:26;5.60;;;2.60;;
67757;SDS011;54562;47.620;18.786;2023-04-25T14:06:33;6.40;;;2.50;;
67757;SDS011;54562;47.620;18.786;2023-04-25T14:09:41;5.30;;;2.10;;
67757;SDS011;54562;47.620;18.786;2023-04-25T14:12:48;5.10;;;2.30;;
67757;SDS011;54562;47.620;18.786;2023-04-25T14:15:54;4.90;;;2.20;;
67757;SDS011;54562;47.620;18.786;2023-04-25T14:19:00;4.50;;;2.30;;
67757;SDS011;54562;47.620;18.786;2023-04-25T14:22:07;5.10;;;2.50;;
67757;SDS011;54562;47.620;18.786;2023-04-25T14:25:13;6.20;;;2.50;;
67757;SDS011;54562;47.620;18.786;2023-04-25T14:28:20;4.70;;;2.20;;
67757;SDS011;54562;47.620;18.786;2023-04-25T14:31:27;5.20;;;2.50;;
67757;SDS011;54562;47.620;18.786;2023-04-25T14:34:34;4.70;;;2.30;;
67757;SDS011;54562;47.620;18.786;2023-04-25T14:37:41;5.40;;;2.50;;
67757;SDS011;54562;47.620;18.786;2023-04-25T14:40:47;5.10;;;2.40;;
67757;SDS011;54562;47.620;18.786;2023-04-25T14:43:54;5.80;;;2.50;;
67757;SDS011;54562;47.620;18.786;2023-04-25T14:47:01;5.00;;;2.40;;
67757;SDS011;54562;47.620;18.786;2023-04-25T14:50:10;4.70;;;2.40;;
67757;SDS011;54562;47.620;18.786;2023-04-25T14:53:17;4.40;;;2.30;;
67757;SDS011;54562;47.620;18.786;2023-04-25T14:56:23;5.60;;;2.50;;
67757;SDS011;54562;47.620;18.786;2023-04-25T14:59:30;5.20;;;2.50;;
67757;SDS011;54562;47.620;18.786;2023-04-25T15:02:36;6.00;;;2.40;;
67757;SDS011;54562;47.620;18.786;2023-04-25T15:05:43;5.50;;;2.60;;
67757;SDS011;54562;47.620;18.786;2023-04-25T15:08:49;5.00;;;2.40;;
67757;SDS011;54562;47.620;18.786;2023-04-25T15:11:55;5.20;;;2.50;;
67757;SDS011;54562;47.620;18.786;2023-04-25T15:15:03;6.40;;;3.20;;
67757;SDS011;54562;47.620;18.786;2023-04-25T15:21:17;6.40;;;3.60;;
67757;SDS011;54562;47.620;18.786;2023-04-25T15:24:23;6.90;;;3.90;;
67757;SDS011;54562;47.620;18.786;2023-04-25T15:27:30;6.50;;;3.50;;
67757;SDS011;54562;47.620;18.786;2023-04-25T15:30:39;6.10;;;3.60;;
67757;SDS011;54562;47.620;18.786;2023-04-25T15:33:45;9.20;;;4.10;;
67757;SDS011;54562;47.620;18.786;2023-04-25T15:36:52;6.30;;;3.70;;
67757;SDS011;54562;47.620;18.786;2023-04-25T15:40:02;6.50;;;3.50;;
67757;SDS011;54562;47.620;18.786;2023-04-25T15:43:13;6.20;;;3.60;;
67757;SDS011;54562;47.620;18.786;2023-04-25T15:46:21;7.90;;;3.50;;
67757;SDS011;54562;47.620;18.786;2023-04-25T15:49:27;6.10;;;3.20;;
67757;SDS011;54562;47.620;18.786;2023-04-25T15:52:36;7.40;;;3.40;;
67757;SDS011;54562;47.620;18.786;2023-04-25T15:55:42;5.90;;;3.30;;
67757;SDS011;54562;47.620;18.786;2023-04-25T15:58:49;6.00;;;3.40;;
67757;SDS011;54562;47.620;18.786;2023-04-25T16:01:56;10.60;;;4.00;;
67757;SDS011;54562;47.620;18.786;2023-04-25T16:05:03;7.30;;;4.50;;
67757;SDS011;54562;47.620;18.786;2023-04-25T16:08:10;6.40;;;4.10;;
67757;SDS011;54562;47.620;18.786;2023-04-25T16:11:17;7.30;;;3.70;;
67757;SDS011;54562;47.620;18.786;2023-04-25T16:14:23;7.40;;;3.80;;
67757;SDS011;54562;47.620;18.786;2023-04-25T16:17:30;6.00;;;3.50;;
67757;SDS011;54562;47.620;18.786;2023-04-25T16:20:37;6.10;;;3.40;;
67757;SDS011;54562;47.620;18.786;2023-04-25T16:23:43;7.00;;;3.60;;
67757;SDS011;54562;47.620;18.786;2023-04-25T16:26:49;7.10;;;3.70;;
67757;SDS011;54562;47.620;18.786;2023-04-25T16:29:56;7.00;;;3.80;;
67757;SDS011;54562;47.620;18.786;2023-04-25T16:33:03;6.50;;;3.30;;
67757;SDS011;54562;47.620;18.786;2023-04-25T16:36:10;6.20;;;3.30;;
67757;SDS011;54562;47.620;18.786;2023-04-25T16:39:17;7.00;;;3.50;;
67757;SDS011;54562;47.620;18.786;2023-04-25T16:42:27;6.30;;;3.90;;
67757;SDS011;54562;47.620;18.786;2023-04-25T16:45:34;10.20;;;3.70;;
67757;SDS011;54562;47.620;18.786;2023-04-25T16:48:40;7.70;;;4.10;;
67757;SDS011;54562;47.620;18.786;2023-04-25T16:51:47;6.60;;;3.60;;
67757;SDS011;54562;47.620;18.786;2023-04-25T16:54:53;8.30;;;4.00;;
67757;SDS011;54562;47.620;18.786;2023-04-25T16:57:59;6.70;;;3.70;;
67757;SDS011;54562;47.620;18.786;2023-04-25T17:01:06;6.70;;;3.80;;
67757;SDS011;54562;47.620;18.786;2023-04-25T17:04:13;7.70;;;3.60;;
67757;SDS011;54562;47.620;18.786;2023-04-25T17:07:20;5.70;;;3.30;;
67757;SDS011;54562;47.620;18.786;2023-04-25T17:10:28;5.80;;;3.30;;
67757;SDS011;54562;47.620;18.786;2023-04-25T17:13:35;8.00;;;3.70;;
67757;SDS011;54562;47.620;18.786;2023-04-25T17:16:41;8.10;;;3.70;;
67757;SDS011;54562;47.620;18.786;2023-04-25T17:19:48;12.60;;;4.20;;
67757;SDS011;54562;47.620;18.786;2023-04-25T17:22:54;7.50;;;3.80;;
67757;SDS011;54562;47.620;18.786;2023-04-25T17:26:01;7.90;;;4.00;;
67757;SDS011;54562;47.620;18.786;2023-04-25T17:29:07;6.70;;;3.90;;
67757;SDS011;54562;47.620;18.786;2023-04-25T17:32:14;9.00;;;4.40;;
67757;SDS011;54562;47.620;18.786;2023-04-25T17:35:21;9.70;;;4.70;;
67757;SDS011;54562;47.620;18.786;2023-04-25T17:38:28;9.00;;;5.10;;
67757;SDS011;54562;47.620;18.786;2023-04-25T17:44:39;8.80;;;5.10;;
67757;SDS011;54562;47.620;18.786;2023-04-25T17:47:46;8.00;;;4.50;;
67757;SDS011;54562;47.620;18.786;2023-04-25T17:50:53;8.00;;;4.80;;
67757;SDS011;54562;47.620;18.786;2023-04-25T17:54:00;8.30;;;4.80;;
67757;SDS011;54562;47.620;18.786;2023-04-25T17:57:07;7.90;;;4.40;;
67757;SDS011;54562;47.620;18.786;2023-04-25T18:00:15;11.90;;;5.00;;
67757;SDS011;54562;47.620;18.786;2023-04-25T18:03:22;10.10;;;5.10;;
67757;SDS011;54562;47.620;18.786;2023-04-25T18:06:28;8.40;;;4.70;;
67757;SDS011;54562;47.620;18.786;2023-04-25T18:09:36;7.30;;;4.30;;
67757;SDS011;54562;47.620;18.786;2023-04-25T18:12:42;8.50;;;4.70;;
67757;SDS011;54562;47.620;18.786;2023-04-25T18:15:49;7.00;;;4.00;;
67757;SDS011;54562;47.620;18.786;2023-04-25T18:18:56;7.00;;;4.30;;
67757;SDS011;54562;47.620;18.786;2023-04-25T18:22:09;7.90;;;4.30;;
67757;SDS011;54562;47.620;18.786;2023-04-25T18:25:17;9.20;;;4.40;;
67757;SDS011;54562;47.620;18.786;2023-04-25T18:28:23;8.50;;;4.70;;
67757;SDS011;54562;47.620;18.786;2023-04-25T18:31:30;7.60;;;4.30;;
67757;SDS011;54562;47.620;18.786;2023-04-25T18:34:36;7.60;;;4.40;;
67757;SDS011;54562;47.620;18.786;2023-04-25T18:37:47;7.30;;;4.00;;
67757;SDS011;54562;47.620;18.786;2023-04-25T18:40:57;9.40;;;4.50;;
67757;SDS011;54562;47.620;18.786;2023-04-25T18:47:28;7.00;;;3.60;;
67757;SDS011;54562;47.620;18.786;2023-04-25T18:50:34;6.70;;;3.90;;
67757;SDS011;54562;47.620;18.786;2023-04-25T18:53:41;7.30;;;4.00;;
67757;SDS011;54562;47.620;18.786;2023-04-25T18:56:47;9.80;;;3.70;;
67757;SDS011;54562;47.620;18.786;2023-04-25T18:59:59;7.50;;;4.00;;
67757;SDS011;54562;47.620;18.786;2023-04-25T19:03:11;6.90;;;3.80;;
67757;SDS011;54562;47.620;18.786;2023-04-25T19:06:18;7.00;;;4.00;;
67757;SDS011;54562;47.620;18.786;2023-04-25T19:09:26;7.10;;;4.10;;
67757;SDS011;54562;47.620;18.786;2023-04-25T19:12:36;6.90;;;3.90;;
67757;SDS011;54562;47.620;18.786;2023-04-25T19:15:44;7.50;;;4.10;;